createdAt,value
2023-02-14T00:01:20.620Z,18.05
2023-02-14T00:03:49.500Z,18.60
2023-02-14T00:06:17.254Z,17.67
2023-02-14T00:08:45.019Z,18.80
2023-02-14T00:11:13.645Z,17.77
2023-02-14T00:14:01.123Z,17.75
2023-02-14T00:16:28.528Z,17.75
2023-02-14T00:19:05.089Z,18.40
2023-02-14T00:21:36.132Z,17.58
2023-02-14T00:24:14.757Z,18.25
2023-02-14T00:26:42.999Z,17.58
2023-02-14T00:29:16.179Z,19.27
2023-02-14T00:31:44.690Z,18.35
2023-02-14T00:34:12.438Z,17.58
2023-02-14T00:36:39.877Z,18.48
2023-02-14T00:39:09.712Z,18.33
2023-02-14T00:41:38.219Z,18.35
2023-02-14T00:44:06.298Z,19.13
2023-02-14T00:46:33.935Z,18.23
2023-02-14T00:49:01.994Z,16.85
2023-02-14T00:51:30.154Z,18.63
2023-02-14T00:53:57.576Z,17.27
2023-02-14T00:56:24.932Z,18.30
2023-02-14T00:58:52.249Z,17.67
2023-02-14T01:01:19.822Z,17.45
2023-02-14T01:03:47.362Z,18.80
2023-02-14T01:06:15.216Z,18.13
2023-02-14T01:08:42.679Z,18.75
2023-02-14T01:11:20.180Z,19.15
2023-02-14T01:13:49.132Z,19.48
2023-02-14T01:16:20.994Z,17.67
2023-02-14T01:18:49.340Z,19.17
2023-02-14T01:21:23.363Z,19.73
2023-02-14T01:23:53.200Z,19.98
2023-02-14T01:26:22.246Z,19.65
2023-02-14T01:28:50.444Z,20.33
2023-02-14T01:31:24.070Z,20.10
2023-02-14T01:33:52.034Z,20.98
2023-02-14T01:36:23.822Z,19.40
2023-02-14T01:38:54.078Z,18.63
2023-02-14T01:41:24.147Z,18.27
2023-02-14T01:43:56.029Z,18.90
2023-02-14T01:46:26.193Z,18.95
2023-02-14T01:48:59.038Z,18.52
2023-02-14T01:51:26.562Z,18.48
2023-02-14T01:53:54.993Z,18.98
2023-02-14T01:56:29.730Z,18.60
2023-02-14T01:59:00.893Z,17.55
2023-02-14T02:01:29.973Z,16.98
2023-02-14T02:04:02.521Z,18.40
2023-02-14T02:06:35.650Z,18.65
2023-02-14T02:09:45.121Z,18.02
2023-02-14T02:12:12.818Z,16.92
2023-02-14T02:14:41.058Z,18.30
2023-02-14T02:17:28.668Z,16.90
2023-02-14T02:20:18.203Z,17.88
2023-02-14T02:23:04.035Z,18.25
2023-02-14T02:26:04.912Z,18.15
2023-02-14T02:29:02.994Z,17.45
2023-02-14T02:31:51.812Z,17.55
2023-02-14T02:34:28.223Z,16.85
2023-02-14T02:37:14.402Z,17.80
2023-02-14T02:40:05.811Z,18.27
2023-02-14T02:42:55.720Z,18.13
2023-02-14T02:45:57.677Z,16.80
2023-02-14T02:48:29.612Z,16.65
2023-02-14T02:51:19.712Z,17.60
2023-02-14T02:54:29.278Z,17.88
2023-02-14T02:56:59.993Z,16.90
2023-02-14T02:59:39.318Z,17.05
2023-02-14T03:02:25.051Z,17.65
2023-02-14T03:04:56.727Z,17.23
2023-02-14T03:07:41.330Z,16.95
2023-02-14T03:10:15.159Z,17.67
2023-02-14T03:12:56.560Z,16.88
2023-02-14T03:15:39.029Z,17.27
2023-02-14T03:18:47.969Z,17.00
2023-02-14T03:21:23.435Z,18.30
2023-02-14T03:24:15.647Z,17.33
2023-02-14T03:27:07.128Z,17.45
2023-02-14T03:29:46.007Z,17.42
2023-02-14T03:32:17.713Z,17.58
2023-02-14T03:34:57.186Z,17.50
2023-02-14T03:37:40.619Z,17.67
2023-02-14T03:40:18.457Z,18.08
2023-02-14T03:42:56.335Z,17.23
2023-02-14T03:45:32.315Z,18.35
2023-02-14T03:48:04.219Z,19.08
2023-02-14T03:50:33.208Z,19.55
2023-02-14T03:53:01.427Z,19.23
2023-02-14T03:56:09.321Z,19.05
2023-02-14T03:58:43.126Z,18.77
2023-02-14T04:01:28.345Z,18.02
2023-02-14T04:03:57.782Z,18.75
2023-02-14T04:06:25.171Z,18.17
2023-02-14T04:08:52.514Z,18.15
2023-02-14T04:11:20.225Z,19.25
2023-02-14T04:13:47.582Z,19.25
2023-02-14T04:16:14.886Z,18.85
2023-02-14T04:19:01.098Z,18.02
2023-02-14T04:21:28.491Z,17.83
2023-02-14T04:23:55.850Z,18.75
2023-02-14T04:26:23.147Z,18.23
2023-02-14T04:28:50.407Z,18.80
2023-02-14T04:31:18.009Z,18.58
2023-02-14T04:33:48.074Z,18.67
2023-02-14T04:36:15.433Z,16.73
2023-02-14T04:38:42.753Z,17.55
2023-02-14T04:41:10.116Z,17.33
2023-02-14T04:43:37.521Z,17.73
2023-02-14T04:46:05.076Z,18.88
2023-02-14T04:48:32.383Z,18.90
2023-02-14T04:51:00.055Z,18.92
2023-02-14T04:53:27.667Z,18.33
2023-02-14T04:55:55.019Z,17.40
2023-02-14T04:58:22.400Z,19.35
2023-02-14T05:00:49.774Z,19.33
2023-02-14T05:03:17.162Z,19.38
2023-02-14T05:05:44.492Z,20.00
2023-02-14T05:08:12.044Z,20.08
2023-02-14T05:10:39.442Z,19.10
2023-02-14T05:13:06.910Z,20.05
2023-02-14T05:15:34.865Z,21.00
2023-02-14T05:18:05.718Z,19.95
2023-02-14T05:20:33.118Z,20.52
2023-02-14T05:23:03.358Z,20.25
2023-02-14T05:25:31.364Z,20.65
2023-02-14T05:27:58.631Z,20.95
2023-02-14T05:30:28.164Z,20.20
2023-02-14T05:32:55.666Z,20.63
2023-02-14T05:35:23.073Z,21.30
2023-02-14T05:37:50.632Z,21.27
2023-02-14T05:40:18.192Z,20.70
2023-02-14T05:42:45.690Z,19.90
2023-02-14T05:45:13.032Z,20.38
2023-02-14T05:47:40.644Z,21.00
2023-02-14T05:50:09.035Z,20.50
2023-02-14T05:52:37.731Z,20.58
2023-02-14T05:55:05.800Z,19.80
2023-02-14T05:57:33.319Z,21.58
2023-02-14T06:00:00.774Z,21.90
2023-02-14T06:02:28.355Z,21.63
2023-02-14T06:04:55.823Z,21.52
2023-02-14T06:07:23.384Z,21.83
2023-02-14T06:09:50.785Z,21.42
2023-02-14T06:12:18.096Z,22.88
2023-02-14T06:14:45.441Z,22.88
2023-02-14T06:17:12.917Z,22.50
2023-02-14T06:19:40.229Z,23.20
2023-02-14T06:22:07.509Z,24.80
2023-02-14T06:24:34.822Z,23.00
2023-02-14T06:27:02.373Z,23.50
2023-02-14T06:29:29.865Z,24.15
2023-02-14T06:31:57.283Z,26.95
2023-02-14T06:34:24.611Z,28.33
2023-02-14T06:36:51.942Z,29.23
2023-02-14T06:51:35.359Z,29.98
2023-02-14T06:54:02.642Z,27.05
2023-02-14T06:56:30.131Z,28.23
2023-02-14T06:58:57.545Z,28.02
2023-02-14T07:01:24.979Z,27.73
2023-02-14T07:03:52.368Z,27.10
2023-02-14T07:06:19.699Z,27.95
2023-02-14T07:08:47.142Z,26.13
2023-02-14T07:11:14.538Z,25.45
2023-02-14T07:13:43.828Z,25.83
2023-02-14T07:16:11.424Z,25.52
2023-02-14T07:18:38.766Z,24.45
2023-02-14T07:21:06.181Z,23.73
2023-02-14T07:23:33.544Z,23.33
2023-02-14T07:26:00.892Z,25.15
2023-02-14T07:30:55.475Z,20.00
2023-02-14T07:33:22.826Z,19.98
2023-02-14T07:35:50.104Z,20.58
2023-02-14T07:38:17.546Z,20.02
2023-02-14T07:40:44.866Z,20.13
2023-02-14T07:43:12.255Z,20.50
2023-02-14T07:45:39.888Z,21.50
2023-02-14T07:48:07.552Z,21.83
2023-02-14T07:50:34.890Z,21.55
2023-02-14T07:53:02.445Z,24.10
2023-02-14T07:55:29.779Z,24.27
2023-02-14T07:57:57.176Z,21.88
2023-02-14T08:00:24.531Z,23.02
2023-02-14T08:02:51.952Z,23.15
2023-02-14T08:05:19.618Z,24.45
2023-02-14T08:07:46.888Z,23.50
2023-02-14T08:10:15.304Z,21.65
2023-02-14T08:13:00.766Z,24.10
2023-02-14T08:15:52.024Z,22.17
2023-02-14T08:18:21.498Z,22.00
2023-02-14T08:20:50.016Z,21.67
2023-02-14T08:23:19.042Z,21.63
2023-02-14T08:25:48.336Z,20.08
2023-02-14T08:28:16.400Z,21.45
2023-02-14T08:30:45.073Z,21.65
2023-02-14T08:33:12.537Z,21.25
2023-02-14T08:35:39.924Z,22.23
2023-02-14T08:38:07.855Z,21.15
2023-02-14T08:40:37.132Z,19.23
2023-02-14T08:43:06.831Z,19.92
2023-02-14T08:45:34.389Z,18.67
2023-02-14T08:48:12.644Z,18.58
2023-02-14T08:50:40.396Z,17.98
2023-02-14T08:53:12.601Z,17.98
2023-02-14T08:55:40.290Z,17.92
2023-02-14T08:58:07.940Z,16.35
2023-02-14T09:00:35.409Z,16.38
2023-02-14T09:03:03.025Z,16.63
2023-02-14T09:05:30.419Z,16.85
2023-02-14T09:07:57.742Z,16.92
2023-02-14T09:10:25.646Z,16.13
2023-02-14T09:12:52.998Z,16.65
2023-02-14T09:15:20.522Z,17.10
2023-02-14T09:17:47.953Z,15.13
2023-02-14T09:20:16.422Z,19.02
2023-02-14T09:22:43.969Z,20.35
2023-02-14T09:25:11.684Z,19.42
2023-02-14T09:27:39.652Z,19.73
2023-02-14T09:30:09.815Z,19.83
2023-02-14T09:32:37.170Z,20.92
2023-02-14T09:35:04.808Z,19.98
2023-02-14T09:37:50.633Z,20.63
2023-02-14T09:40:20.249Z,19.52
2023-02-14T09:42:56.739Z,19.85
2023-02-14T09:45:29.763Z,20.05
2023-02-14T09:48:29.302Z,20.02
2023-02-14T09:51:20.081Z,18.77
2023-02-14T09:53:52.394Z,18.67
2023-02-14T09:56:37.332Z,19.52
2023-02-14T09:59:36.832Z,20.13
2023-02-14T10:02:29.771Z,18.20
2023-02-14T10:05:17.735Z,18.73
2023-02-14T10:08:04.217Z,18.77
2023-02-14T10:10:41.445Z,18.30
2023-02-14T10:13:27.663Z,18.83
2023-02-14T10:16:03.756Z,17.75
2023-02-14T10:18:46.514Z,18.73
2023-02-14T10:21:46.454Z,17.25
2023-02-14T10:24:40.209Z,18.55
2023-02-14T10:27:28.704Z,18.50
2023-02-14T10:29:56.184Z,17.88
2023-02-14T10:33:01.768Z,18.42
2023-02-14T10:35:50.954Z,18.27
2023-02-14T10:38:29.955Z,18.90
2023-02-14T10:41:27.821Z,17.80
2023-02-14T10:43:57.848Z,17.90
2023-02-14T10:46:59.079Z,16.10
2023-02-14T10:49:37.819Z,14.75
2023-02-14T10:52:35.672Z,14.13
2023-02-14T10:55:31.577Z,12.38
2023-02-14T10:58:04.265Z,11.20
2023-02-14T11:00:41.496Z,11.52
2023-02-14T11:03:10.906Z,11.15
2023-02-14T11:05:47.585Z,11.30
2023-02-14T11:08:28.924Z,11.93
2023-02-14T11:11:03.270Z,11.57
2023-02-14T11:13:39.026Z,12.30
2023-02-14T11:18:39.569Z,11.55
2023-02-14T11:21:09.613Z,11.60
2023-02-14T11:23:46.097Z,11.10
2023-02-14T11:26:29.574Z,10.77
2023-02-14T11:29:00.086Z,10.45
2023-02-14T11:31:33.242Z,11.13
2023-02-14T11:34:04.836Z,10.68
2023-02-14T11:36:39.209Z,9.20
2023-02-14T11:39:30.413Z,10.20
2023-02-14T11:42:00.951Z,9.80
2023-02-14T11:44:30.310Z,9.20
2023-02-14T11:47:15.806Z,9.10
2023-02-14T11:49:58.221Z,9.13
2023-02-14T11:52:29.808Z,8.32
2023-02-14T11:54:59.060Z,8.45
2023-02-14T11:57:34.753Z,7.75
2023-02-14T12:00:12.388Z,7.05
2023-02-14T12:02:51.032Z,6.70
2023-02-14T12:05:26.892Z,8.05
2023-02-14T12:07:57.605Z,8.82
2023-02-14T12:10:31.949Z,8.00
2023-02-14T12:13:22.076Z,8.15
2023-02-14T12:15:52.100Z,9.60
2023-02-14T12:18:35.494Z,8.50
2023-02-14T12:21:24.906Z,9.20
2023-02-14T12:24:03.392Z,9.18
2023-02-14T12:26:52.664Z,9.88
2023-02-14T12:29:28.729Z,9.82
2023-02-14T12:32:01.712Z,9.07
2023-02-14T12:34:29.776Z,9.23
2023-02-14T12:37:09.580Z,10.10
2023-02-14T12:39:49.039Z,10.65
2023-02-14T12:42:47.421Z,11.02
2023-02-14T12:45:46.589Z,10.55
2023-02-14T12:48:48.866Z,11.48
2023-02-14T12:51:21.913Z,11.00
2023-02-14T12:53:57.771Z,11.13
2023-02-14T12:56:31.497Z,12.15
2023-02-14T12:59:13.935Z,12.32
2023-02-14T13:01:59.899Z,11.27
2023-02-14T13:04:41.000Z,10.70
2023-02-14T13:07:17.735Z,12.03
2023-02-14T13:10:09.695Z,12.82
2023-02-14T13:13:01.872Z,13.70
2023-02-14T13:18:03.345Z,13.30
2023-02-14T13:20:31.085Z,13.95
2023-02-14T13:23:04.383Z,14.95
2023-02-14T13:25:37.601Z,15.40
2023-02-14T13:28:10.166Z,15.73
2023-02-14T13:30:38.891Z,16.38
2023-02-14T13:33:44.477Z,17.17
2023-02-14T13:36:13.701Z,19.50
2023-02-14T13:38:45.914Z,18.88
2023-02-14T13:41:15.196Z,17.50
2023-02-14T13:44:02.550Z,18.08
2023-02-14T13:46:32.682Z,19.17
2023-02-14T13:49:33.173Z,19.95
2023-02-14T13:52:06.335Z,16.88
2023-02-14T13:54:47.412Z,18.58
2023-02-14T13:57:36.696Z,12.70
2023-02-14T14:00:19.516Z,16.10
2023-02-14T14:02:55.000Z,19.42
2023-02-14T14:05:35.482Z,23.05
2023-02-14T14:08:21.233Z,23.15
2023-02-14T14:10:51.138Z,23.60
2023-02-14T14:13:40.372Z,24.38
2023-02-14T14:16:28.569Z,28.25
2023-02-14T14:19:02.003Z,25.13
2023-02-14T14:21:35.212Z,26.58
2023-02-14T14:24:24.497Z,29.00
2023-02-14T14:26:57.697Z,29.20
2023-02-14T14:29:32.669Z,28.45
2023-02-14T14:32:07.655Z,27.88
2023-02-14T14:34:34.989Z,30.05
2023-02-14T14:37:08.014Z,28.58
2023-02-14T14:39:36.457Z,31.67
2023-02-14T14:42:24.636Z,30.48
2023-02-14T14:45:01.781Z,31.58
2023-02-14T14:47:54.084Z,31.73
2023-02-14T14:50:28.613Z,29.83
2023-02-14T14:52:58.527Z,29.42
2023-02-14T14:55:30.581Z,30.67
2023-02-14T14:58:04.203Z,30.25
2023-02-14T15:00:37.829Z,30.98
2023-02-14T15:03:11.538Z,30.20
2023-02-14T15:05:50.418Z,28.98
2023-02-14T15:08:22.496Z,29.38
2023-02-14T15:11:02.288Z,29.52
2023-02-14T15:13:49.909Z,29.80
2023-02-14T15:16:27.352Z,30.88
2023-02-14T15:19:17.301Z,30.40
2023-02-14T15:21:46.092Z,29.55
2023-02-14T15:24:16.006Z,28.88
2023-02-14T15:26:46.595Z,31.58
2023-02-14T15:29:31.895Z,30.75
2023-02-14T15:32:03.019Z,31.45
2023-02-14T15:34:36.067Z,30.08
2023-02-14T15:37:06.590Z,32.47
2023-02-14T15:39:40.565Z,32.15
2023-02-14T15:42:26.006Z,32.38
2023-02-14T15:45:17.129Z,31.13
2023-02-14T15:47:47.353Z,29.85
2023-02-14T15:50:27.935Z,30.17
2023-02-14T15:53:08.830Z,30.25
2023-02-14T15:55:36.956Z,28.08
2023-02-14T15:58:12.224Z,31.95
2023-02-14T16:00:43.126Z,31.83
2023-02-14T16:03:18.899Z,32.75
2023-02-14T16:05:48.091Z,30.58
2023-02-14T16:08:35.484Z,31.98
2023-02-14T16:11:05.144Z,33.13
2023-02-14T16:13:36.619Z,32.80
2023-02-14T16:16:05.315Z,33.55
2023-02-14T16:18:38.859Z,34.20
2023-02-14T16:21:21.655Z,34.45
2023-02-14T16:24:07.477Z,35.67
2023-02-14T16:26:43.537Z,34.83
2023-02-14T16:29:13.750Z,35.00
2023-02-14T16:34:40.875Z,35.08
2023-02-14T16:37:19.011Z,35.50
2023-02-14T16:39:46.715Z,35.35
2023-02-14T16:44:45.544Z,36.45
2023-02-14T16:47:14.465Z,36.28
2023-02-14T16:49:42.288Z,37.00
2023-02-14T16:52:14.447Z,36.30
2023-02-14T16:54:42.022Z,37.33
2023-02-14T16:57:18.733Z,40.55
2023-02-14T16:59:46.413Z,36.95
2023-02-14T17:02:14.013Z,37.70
2023-02-14T17:04:41.939Z,39.35
2023-02-14T17:07:09.543Z,38.45
2023-02-14T17:09:40.785Z,38.92
2023-02-14T17:12:15.232Z,39.00
2023-02-14T17:14:47.798Z,39.05
2023-02-14T17:17:15.791Z,40.10
2023-02-14T17:19:43.891Z,40.13
2023-02-14T17:22:13.604Z,39.92
2023-02-14T17:24:41.491Z,38.78
2023-02-14T17:27:08.810Z,39.70
2023-02-14T17:29:36.341Z,40.33
2023-02-14T17:32:03.725Z,40.83
2023-02-14T17:34:34.882Z,42.33
2023-02-14T17:37:02.925Z,39.45
2023-02-14T17:39:30.337Z,39.45
2023-02-14T17:41:58.128Z,40.22
2023-02-14T17:44:26.069Z,39.20
2023-02-14T17:46:54.698Z,41.47
2023-02-14T18:04:05.740Z,42.70
2023-02-14T18:06:33.584Z,41.47
2023-02-14T18:09:04.934Z,44.75
2023-02-14T18:11:32.295Z,41.97
2023-02-14T18:13:59.870Z,45.47
2023-02-14T18:16:27.216Z,42.95
2023-02-14T18:18:55.018Z,44.30
2023-02-14T18:21:24.526Z,43.67
2023-02-14T18:23:52.051Z,43.85
2023-02-14T18:26:19.580Z,43.42
2023-02-14T18:28:47.066Z,43.63
2023-02-14T18:31:16.772Z,45.15
2023-02-14T18:33:46.967Z,44.40
2023-02-14T18:36:17.525Z,43.05
2023-02-14T18:38:46.656Z,35.42
2023-02-14T18:41:16.904Z,35.60
2023-02-14T18:43:45.156Z,35.70
2023-02-14T18:46:18.536Z,35.33
2023-02-14T18:48:46.429Z,36.10
2023-02-14T18:51:26.259Z,35.83
2023-02-14T18:53:55.851Z,36.35
2023-02-14T18:56:27.145Z,37.70
2023-02-14T18:59:00.207Z,36.97
2023-02-14T19:01:30.532Z,37.25
2023-02-14T19:03:59.988Z,36.60
2023-02-14T19:06:29.585Z,39.03
2023-02-14T19:08:57.534Z,37.28
2023-02-14T19:11:29.509Z,37.03
2023-02-14T19:13:58.340Z,36.55
2023-02-14T19:16:33.122Z,37.05
2023-02-14T19:19:02.700Z,38.40
2023-02-14T19:21:33.691Z,38.45
2023-02-14T19:24:02.895Z,38.67
2023-02-14T19:26:32.943Z,38.97
2023-02-14T19:29:02.971Z,37.53
2023-02-14T19:31:31.005Z,38.00
2023-02-14T19:33:58.313Z,39.47
2023-02-14T19:36:25.700Z,40.63
